Time;durP1;ratioP1;P1;durP2;ratioP2;P2;SDS_P1;SDS_P2;PMS_P1;PMS_P2;Temp;Humidity;BMP_temperature;BMP_pressure;BME280_temperature;BME280_humidity;BME280_pressure;Samples;Min_cycle;Max_cycle;Signal;HPM_P1;HPM_P2
2022/12/07 00:01:41;;;;;;;33.40;14.00;;;3.60;1.00;;;;;;5052138;28;20047;-66
2022/12/07 00:04:11;;;;;;;30.38;13.02;;;3.50;1.00;;;;;;5050542;28;20030;-65
2022/12/07 00:06:41;;;;;;;32.88;13.60;;;3.60;1.00;;;;;;5040669;28;20021;-66
2022/12/07 00:09:13;;;;;;;30.55;13.18;;;3.60;1.00;;;;;;5045612;28;20017;-64
2022/12/07 00:11:39;;;;;;;;;;;3.50;1.00;;;;;;5047056;28;20037;-65
2022/12/07 00:14:07;;;;;;;33.72;13.52;;;3.40;1.00;;;;;;5051985;28;19916;-65
2022/12/07 00:16:34;;;;;;;29.77;14.65;;;3.60;15.60;;;;;;5051747;28;20528;-65
2022/12/07 00:19:01;;;;;;;30.38;13.90;;;3.60;10.60;;;;;;5051888;28;20466;-65
2022/12/07 00:21:35;;;;;;;33.55;13.95;;;3.50;1.00;;;;;;5051604;28;20035;-64
2022/12/07 00:24:02;;;;;;;34.80;15.23;;;3.50;1.00;;;;;;5035220;28;20026;-65
2022/12/07 00:26:30;;;;;;;30.35;13.73;;;3.50;1.00;;;;;;5031788;28;20076;-65
2022/12/07 00:28:58;;;;;;;33.13;14.00;;;3.50;1.60;;;;;;5031883;28;20021;-66
2022/12/07 00:31:28;;;;;;;35.05;14.48;;;3.50;1.00;;;;;;5031570;28;20040;-65
2022/12/07 00:33:53;;;;;;;36.88;14.32;;;3.50;18.40;;;;;;5031646;28;20151;-65
2022/12/07 00:36:21;;;;;;;37.85;14.98;;;3.50;6.30;;;;;;5031515;28;20100;-65
2022/12/07 00:38:47;;;;;;;36.78;15.07;;;3.40;1.00;;;;;;5031372;28;20382;-65
2022/12/07 00:41:19;;;;;;;30.80;14.18;;;3.30;1.00;;;;;;5031043;28;20037;-66
2022/12/07 00:43:47;;;;;;;33.08;15.13;;;3.30;1.00;;;;;;5031409;28;20666;-65
2022/12/07 00:46:13;;;;;;;30.70;15.02;;;3.20;1.00;;;;;;5031349;28;20077;-65
2022/12/07 00:48:40;;;;;;;33.65;14.93;;;3.20;9.00;;;;;;5031240;28;20035;-65
2022/12/07 00:51:06;;;;;;;35.15;14.27;;;3.30;47.60;;;;;;5031212;28;20046;-64
2022/12/07 00:53:35;;;;;;;30.08;13.77;;;3.30;60.10;;;;;;5031259;28;20493;-65
2022/12/07 00:56:07;;;;;;;32.72;12.60;;;3.30;51.50;;;;;;5031337;28;20021;-65
2022/12/07 00:58:33;;;;;;;26.40;12.30;;;3.30;65.00;;;;;;5030153;28;20025;-65
2022/12/07 01:01:04;;;;;;;27.45;11.43;;;3.40;84.10;;;;;;5031161;28;20032;-65
2022/12/07 01:03:30;;;;;;;30.25;12.10;;;3.40;99.90;;;;;;5031218;28;20108;-64
2022/12/07 01:05:56;;;;;;;28.40;11.73;;;3.50;99.90;;;;;;5031344;28;20431;-65
2022/12/07 01:08:23;;;;;;;28.98;12.98;;;3.60;99.90;;;;;;5031273;28;20021;-66
2022/12/07 01:10:56;;;;;;;31.25;12.23;;;3.70;99.90;;;;;;5031134;28;20042;-65
2022/12/07 01:13:22;;;;;;;25.60;11.50;;;3.70;99.90;;;;;;5031039;28;20021;-64
2022/12/07 01:15:48;;;;;;;26.42;10.40;;;3.80;99.90;;;;;;5031011;28;20524;-65
2022/12/07 01:18:13;;;;;;;25.70;9.77;;;4.00;99.90;;;;;;5031139;28;20025;-65
2022/12/07 01:20:40;;;;;;;25.67;9.63;;;4.10;99.90;;;;;;5031412;28;20385;-64
2022/12/07 01:23:06;;;;;;;23.55;10.30;;;4.30;99.90;;;;;;5031097;28;20108;-65
2022/12/07 01:25:31;;;;;;;26.88;10.48;;;4.40;99.90;;;;;;5031259;28;20107;-66
2022/12/07 01:27:57;;;;;;;26.17;10.48;;;4.40;99.90;;;;;;5030988;28;20108;-65
2022/12/07 01:30:23;;;;;;;19.73;9.93;;;4.40;99.90;;;;;;5030983;28;20478;-65
2022/12/07 01:32:48;;;;;;;23.10;10.20;;;4.50;99.90;;;;;;5030892;28;20064;-65
2022/12/07 01:35:14;;;;;;;25.92;9.52;;;4.50;99.90;;;;;;5030883;28;20022;-65
2022/12/07 01:37:40;;;;;;;25.48;9.63;;;4.50;99.90;;;;;;5031083;28;20025;-65
2022/12/07 01:40:08;;;;;;;26.58;10.20;;;4.60;99.90;;;;;;5030964;28;20114;-65
2022/12/07 01:42:34;;;;;;;20.90;9.43;;;4.60;99.90;;;;;;5030802;28;20029;-65
2022/12/07 01:45:18;;;;;;;30.83;10.23;;;4.50;99.90;;;;;;5030661;28;20022;-65
2022/12/07 01:47:51;;;;;;;22.88;9.95;;;4.50;99.90;;;;;;5030685;28;20025;-65
2022/12/07 01:50:16;;;;;;;21.23;9.77;;;4.40;99.90;;;;;;5030746;28;20064;-65
2022/12/07 01:52:45;;;;;;;32.70;10.65;;;4.40;99.90;;;;;;5031815;28;20023;-66
2022/12/07 01:55:13;;;;;;;23.13;9.93;;;4.30;99.90;;;;;;5034322;28;20397;-64
2022/12/07 01:57:43;;;;;;;31.88;9.80;;;4.40;99.90;;;;;;5034507;28;20043;-66
2022/12/07 02:00:13;;;;;;;25.70;10.27;;;4.40;99.90;;;;;;5034498;28;20057;-65
2022/12/07 02:02:56;;;;;;;29.63;10.80;;;4.40;99.90;;;;;;5034428;28;20073;-65
2022/12/07 02:05:25;;;;;;;24.52;11.07;;;4.30;99.90;;;;;;5034346;28;20025;-65
2022/12/07 02:07:52;;;;;;;26.60;10.38;;;4.40;99.90;;;;;;5034402;28;20032;-64
2022/12/07 02:10:21;;;;;;;28.13;10.38;;;4.40;99.90;;;;;;5034142;28;20385;-64
2022/12/07 02:12:54;;;;;;;27.77;10.90;;;4.40;99.90;;;;;;5034131;28;20025;-64
2022/12/07 02:15:21;;;;;;;28.45;10.40;;;4.30;99.90;;;;;;5034268;28;20033;-64
2022/12/07 02:18:03;;;;;;;30.88;10.50;;;4.30;99.90;;;;;;5034114;28;20032;-66
2022/12/07 02:20:41;;;;;;;;;;;4.30;99.90;;;;;;5034611;28;20103;-66
2022/12/07 02:23:56;;;;;;;21.52;10.15;;;4.30;99.90;;;;;;5034440;28;19970;-65
2022/12/07 02:26:46;;;;;;;29.58;9.70;;;4.40;99.90;;;;;;5031503;28;20528;-65
2022/12/07 02:29:25;;;;;;;31.73;10.07;;;4.40;99.90;;;;;;5031552;28;20053;-64
2022/12/07 02:32:15;;;;;;;22.33;9.07;;;4.40;99.90;;;;;;5033467;28;20056;-65
2022/12/07 02:34:41;;;;;;;21.98;9.55;;;4.50;99.90;;;;;;5033743;28;20040;-66
2022/12/07 02:37:19;;;;;;;27.00;9.65;;;4.60;99.90;;;;;;5033468;28;20104;-64
2022/12/07 02:40:08;;;;;;;28.48;10.93;;;4.70;99.90;;;;;;5033732;28;20032;-64
2022/12/07 02:42:42;;;;;;;29.60;11.40;;;4.60;99.90;;;;;;5032850;28;20053;-67
2022/12/07 02:45:10;;;;;;;32.20;11.00;;;4.60;99.90;;;;;;5033628;28;20026;-66
2022/12/07 02:47:37;;;;;;;28.13;10.75;;;4.60;99.90;;;;;;5033431;28;20490;-65
2022/12/07 02:50:06;;;;;;;26.23;9.98;;;4.50;99.90;;;;;;5033453;28;20034;-65
2022/12/07 02:52:32;;;;;;;27.75;11.27;;;4.50;99.90;;;;;;5033519;28;20025;-65
2022/12/07 02:54:58;;;;;;;30.27;10.57;;;4.40;99.90;;;;;;5033455;28;20025;-64
2022/12/07 02:57:40;;;;;;;25.25;10.18;;;4.40;99.90;;;;;;5033102;28;20025;-65
2022/12/07 03:00:08;;;;;;;;;;;4.60;99.90;;;;;;5033743;28;20081;-65
2022/12/07 03:03:03;;;;;;;25.48;9.35;;;4.60;99.90;;;;;;5033282;28;19947;-65
2022/12/07 03:05:50;;;;;;;24.15;11.07;;;4.70;99.90;;;;;;5033107;28;20513;-65
2022/12/07 03:08:22;;;;;;;26.00;10.25;;;4.60;99.90;;;;;;5033179;28;20084;-65
2022/12/07 03:11:14;;;;;;;26.55;10.98;;;4.60;99.90;;;;;;5033136;28;20045;-65
2022/12/07 03:13:50;;;;;;;35.85;12.55;;;4.50;99.90;;;;;;5033055;28;20021;-64
2022/12/07 03:16:30;;;;;;;32.53;11.20;;;4.40;99.90;;;;;;5032886;28;20099;-65
2022/12/07 03:19:05;;;;;;;39.03;12.25;;;4.30;99.90;;;;;;5032907;28;20083;-65
2022/12/07 03:21:39;;;;;;;33.65;11.52;;;4.30;99.90;;;;;;5032886;28;20494;-65
2022/12/07 03:24:11;;;;;;;28.10;13.35;;;4.30;99.90;;;;;;5033019;28;20025;-66
2022/12/07 03:26:43;;;;;;;31.63;11.15;;;4.30;99.90;;;;;;5032905;28;20029;-65
2022/12/07 03:29:14;;;;;;;28.40;10.63;;;4.30;99.90;;;;;;5032771;28;20026;-65
2022/12/07 03:31:44;;;;;;;24.10;9.60;;;4.40;99.90;;;;;;5031467;28;20434;-64
2022/12/07 03:34:49;;;;;;;23.50;9.30;;;4.40;99.90;;;;;;5032903;28;20636;-65
2022/12/07 03:37:20;;;;;;;22.17;9.63;;;4.50;99.90;;;;;;5033904;28;20462;-67
2022/12/07 03:40:14;;;;;;;20.52;9.02;;;4.40;99.90;;;;;;5052356;28;20044;-65
2022/12/07 03:42:40;;;;;;;27.80;10.00;;;4.40;99.90;;;;;;5048870;28;20033;-65
2022/12/07 03:45:07;;;;;;;27.17;9.88;;;4.30;99.90;;;;;;5052378;28;20083;-66
2022/12/07 03:47:35;;;;;;;32.83;11.23;;;4.40;99.90;;;;;;5052399;28;20022;-64
2022/12/07 03:50:21;;;;;;;25.92;10.13;;;4.40;99.90;;;;;;5051157;28;20056;-65
2022/12/07 03:52:55;;;;;;;28.25;9.77;;;4.30;99.90;;;;;;5052373;28;20025;-66
2022/12/07 03:55:34;;;;;;;30.85;9.65;;;4.30;99.90;;;;;;5052207;28;20021;-65
2022/12/07 03:58:04;;;;;;;23.38;9.63;;;4.30;99.90;;;;;;5050987;28;20031;-65
2022/12/07 04:00:29;;;;;;;29.42;10.82;;;4.30;99.90;;;;;;5051996;28;20540;-65
2022/12/07 04:02:55;;;;;;;26.88;9.95;;;4.30;99.90;;;;;;5050637;28;20104;-65
2022/12/07 04:05:21;;;;;;;26.00;10.00;;;4.30;99.90;;;;;;5052166;28;20021;-65
2022/12/07 04:07:47;;;;;;;29.23;10.23;;;4.30;99.90;;;;;;5052124;28;20047;-65
2022/12/07 04:10:13;;;;;;;24.83;10.60;;;4.30;99.90;;;;;;5050523;28;20136;-65
2022/12/07 04:12:39;;;;;;;35.78;10.45;;;4.30;99.90;;;;;;5051802;28;20028;-65
2022/12/07 04:15:06;;;;;;;25.95;10.13;;;4.30;99.90;;;;;;5051019;28;20401;-65
2022/12/07 04:17:31;;;;;;;31.30;9.38;;;4.30;99.90;;;;;;5051736;28;20039;-65
2022/12/07 04:19:57;;;;;;;28.65;10.85;;;4.30;99.90;;;;;;5052022;28;20135;-64
2022/12/07 04:22:23;;;;;;;23.17;10.20;;;4.30;99.90;;;;;;5051907;28;20453;-66
2022/12/07 04:24:48;;;;;;;21.48;9.63;;;4.20;99.90;;;;;;5051779;28;20036;-65
2022/12/07 04:27:14;;;;;;;20.17;9.63;;;4.30;99.90;;;;;;5051525;28;20024;-65
2022/12/07 04:29:40;;;;;;;26.80;9.43;;;4.30;99.90;;;;;;5051576;28;20037;-65
2022/12/07 04:32:06;;;;;;;29.52;10.50;;;4.20;99.90;;;;;;5051685;28;20032;-65
2022/12/07 04:34:31;;;;;;;25.08;9.48;;;4.30;99.90;;;;;;5051589;28;20028;-65
2022/12/07 04:36:57;;;;;;;23.08;9.57;;;4.40;99.90;;;;;;5051383;28;20094;-64
2022/12/07 04:39:28;;;;;;;27.23;10.10;;;4.50;99.90;;;;;;5051342;28;20021;-65
2022/12/07 04:41:54;;;;;;;26.60;9.25;;;4.50;99.90;;;;;;5051432;28;20397;-65
2022/12/07 04:44:21;;;;;;;29.73;10.88;;;4.50;99.90;;;;;;5051432;28;20028;-65
2022/12/07 04:46:49;;;;;;;24.48;10.45;;;4.50;99.90;;;;;;5051542;28;20052;-66
2022/12/07 04:49:15;;;;;;;28.27;10.27;;;4.50;99.90;;;;;;5051367;28;20100;-65
2022/12/07 04:51:42;;;;;;;22.52;9.63;;;4.40;99.90;;;;;;5051139;28;20073;-65
2022/12/07 04:54:08;;;;;;;24.17;10.27;;;4.30;99.90;;;;;;5051438;28;20121;-65
2022/12/07 04:56:35;;;;;;;21.27;9.77;;;4.30;99.90;;;;;;5050997;28;20552;-65
2022/12/07 04:59:01;;;;;;;22.77;9.88;;;4.30;99.90;;;;;;5051073;28;20025;-66
2022/12/07 05:01:27;;;;;;;32.50;10.35;;;4.30;99.90;;;;;;5051336;28;20060;-65
2022/12/07 05:03:53;;;;;;;23.08;9.75;;;4.30;99.90;;;;;;5051147;28;20057;-66
2022/12/07 05:06:19;;;;;;;26.60;10.52;;;4.30;99.90;;;;;;5051165;28;20025;-65
2022/12/07 05:08:45;;;;;;;25.40;10.27;;;4.40;99.90;;;;;;5051004;28;20385;-64
2022/12/07 05:13:57;;;;;;;24.92;9.48;;;4.40;99.90;;;;;;5051366;28;20039;-65
2022/12/07 05:16:22;;;;;;;24.90;9.68;;;4.50;1.00;;;;;;5051115;28;20135;-65
2022/12/07 05:18:48;;;;;;;29.58;10.00;;;4.50;1.00;;;;;;5050850;28;20100;-66
2022/12/07 05:21:14;;;;;;;25.58;9.73;;;4.50;1.00;;;;;;5050929;28;20029;-66
2022/12/07 05:23:39;;;;;;;29.65;11.07;;;4.60;1.00;;;;;;5051123;28;20075;-66
2022/12/07 05:26:05;;;;;;;26.55;11.73;;;4.70;1.00;;;;;;5050813;28;20413;-64
2022/12/07 05:28:31;;;;;;;25.05;10.05;;;4.80;1.00;;;;;;5053648;28;20029;-65
2022/12/07 05:30:56;;;;;;;25.80;11.07;;;4.80;1.00;;;;;;5055040;28;20366;-66
2022/12/07 05:33:22;;;;;;;26.17;10.65;;;4.90;1.00;;;;;;5054970;28;20409;-65
2022/12/07 05:35:48;;;;;;;30.98;11.70;;;4.90;7.50;;;;;;5054966;28;20048;-65
2022/12/07 05:38:13;;;;;;;32.20;11.50;;;4.90;11.80;;;;;;5054861;28;20025;-65
2022/12/07 05:40:39;;;;;;;33.78;11.45;;;4.90;11.40;;;;;;5054902;28;20024;-66
2022/12/07 05:43:05;;;;;;;30.63;11.30;;;4.80;3.40;;;;;;5054595;28;20021;-65
2022/12/07 05:45:30;;;;;;;30.23;11.63;;;4.70;1.00;;;;;;5054791;28;20021;-65
2022/12/07 05:47:56;;;;;;;23.50;10.45;;;4.70;1.00;;;;;;5054514;28;20040;-65
2022/12/07 05:50:22;;;;;;;29.08;11.65;;;4.60;1.00;;;;;;5053230;28;20473;-65
2022/12/07 05:52:47;;;;;;;28.83;9.85;;;4.40;1.00;;;;;;5054421;28;20537;-65
2022/12/07 05:55:13;;;;;;;27.42;9.73;;;4.30;99.90;;;;;;5054451;28;20031;-65
2022/12/07 05:57:39;;;;;;;23.92;10.18;;;4.30;99.90;;;;;;5054397;28;20021;-65
2022/12/07 06:00:05;;;;;;;21.52;9.52;;;4.40;99.90;;;;;;5054296;28;20095;-65
2022/12/07 06:02:31;;;;;;;19.67;9.38;;;4.30;99.90;;;;;;5054212;28;20025;-68
2022/12/07 06:04:56;;;;;;;25.65;9.75;;;4.30;99.90;;;;;;5054481;28;20075;-64
2022/12/07 06:07:22;;;;;;;27.73;9.50;;;4.30;99.90;;;;;;5053191;28;20021;-65
2022/12/07 06:09:48;;;;;;;24.63;10.23;;;4.30;99.90;;;;;;5054030;28;20025;-66
2022/12/07 06:14:58;;;;;;;25.27;10.20;;;4.40;1.00;;;;;;5040964;28;20056;-65
2022/12/07 06:17:24;;;;;;;24.15;9.55;;;4.40;1.00;;;;;;5052083;28;20033;-64
2022/12/07 06:19:51;;;;;;;29.63;9.88;;;4.40;99.90;;;;;;5052479;28;20116;-66
2022/12/07 06:22:17;;;;;;;23.48;9.73;;;4.40;99.90;;;;;;5053514;28;20029;-65
2022/12/07 06:24:43;;;;;;;21.27;9.90;;;4.30;99.90;;;;;;5053067;28;20021;-66
2022/12/07 06:27:09;;;;;;;29.70;10.40;;;4.20;99.90;;;;;;5053623;28;20048;-65
2022/12/07 06:29:35;;;;;;;25.98;9.45;;;4.30;99.90;;;;;;5052845;28;20035;-65
2022/12/07 06:32:00;;;;;;;22.52;9.75;;;4.30;99.90;;;;;;5055010;28;20040;-65
2022/12/07 06:34:27;;;;;;;24.35;10.02;;;4.30;99.90;;;;;;5057068;28;20028;-65
2022/12/07 06:36:54;;;;;;;29.98;9.15;;;4.30;99.90;;;;;;5039520;28;20033;-65
2022/12/07 06:39:28;;;;;;;24.70;9.20;;;4.30;99.90;;;;;;5033019;28;20051;-66
2022/12/07 06:41:54;;;;;;;29.08;9.93;;;4.40;1.00;;;;;;5045288;28;20029;-64
2022/12/07 06:44:21;;;;;;;22.20;9.60;;;4.40;1.00;;;;;;5033780;28;20679;-64
2022/12/07 06:46:48;;;;;;;22.65;9.88;;;4.50;1.00;;;;;;5041351;28;20021;-64
2022/12/07 06:49:14;;;;;;;28.77;11.45;;;4.50;1.00;;;;;;5053447;28;20376;-66
2022/12/07 06:51:43;;;;;;;29.58;12.13;;;4.50;1.00;;;;;;5053430;28;20037;-66
2022/12/07 06:54:10;;;;;;;30.92;10.80;;;4.50;1.00;;;;;;5053505;28;20095;-65
2022/12/07 06:56:36;;;;;;;29.13;11.65;;;4.40;1.00;;;;;;5045578;28;20114;-65
2022/12/07 06:59:02;;;;;;;27.75;10.95;;;4.50;1.00;;;;;;5036917;28;20110;-65
2022/12/07 07:01:28;;;;;;;23.67;10.07;;;4.40;1.00;;;;;;5045290;28;20086;-65
2022/12/07 07:03:54;;;;;;;28.42;10.98;;;4.40;1.00;;;;;;5045918;28;20017;-65
2022/12/07 07:06:20;;;;;;;27.08;10.82;;;4.40;1.00;;;;;;5046705;28;20043;-63
2022/12/07 07:08:46;;;;;;;36.78;11.30;;;4.50;1.00;;;;;;5052584;28;20025;-65
2022/12/07 07:11:12;;;;;;;28.77;11.40;;;4.60;1.00;;;;;;5033205;28;20042;-66
2022/12/07 07:13:38;;;;;;;26.33;10.95;;;4.70;4.60;;;;;;5034381;28;20025;-64
2022/12/07 07:16:05;;;;;;;31.15;12.05;;;4.80;26.00;;;;;;5032641;28;20116;-65
2022/12/07 07:18:31;;;;;;;34.55;11.85;;;4.90;61.30;;;;;;5032964;28;20039;-65
2022/12/07 07:20:56;;;;;;;30.20;11.45;;;5.00;91.40;;;;;;5036564;28;20034;-66
2022/12/07 07:23:22;;;;;;;39.13;13.40;;;5.00;99.90;;;;;;5038795;28;20466;-66
2022/12/07 07:25:48;;;;;;;32.60;12.18;;;5.00;99.90;;;;;;5051071;28;20113;-66
2022/12/07 07:28:15;;;;;;;31.15;12.85;;;5.00;99.90;;;;;;5052845;28;20108;-66
2022/12/07 07:30:40;;;;;;;33.47;13.20;;;5.00;99.90;;;;;;5047314;28;20041;-66
2022/12/07 07:33:06;;;;;;;31.27;12.02;;;5.00;99.90;;;;;;5036161;28;20026;-65
2022/12/07 07:35:34;;;;;;;33.85;11.70;;;4.90;99.90;;;;;;5032682;28;20485;-64
2022/12/07 07:38:00;;;;;;;34.50;11.77;;;4.90;99.90;;;;;;5032778;28;20087;-64
2022/12/07 07:40:28;;;;;;;32.92;11.68;;;4.80;99.90;;;;;;5031245;28;20091;-63
2022/12/07 07:42:54;;;;;;;30.27;12.02;;;4.80;99.90;;;;;;5032698;28;20492;-64
2022/12/07 07:45:22;;;;;;;34.00;12.15;;;4.80;93.30;;;;;;5032383;28;20108;-63
2022/12/07 07:47:48;;;;;;;38.42;12.63;;;4.70;68.10;;;;;;5045297;28;20069;-64
2022/12/07 07:50:15;;;;;;;29.40;12.43;;;4.60;30.20;;;;;;5031648;28;20033;-64
2022/12/07 07:52:40;;;;;;;30.08;11.32;;;4.60;30.80;;;;;;5037417;28;20044;-64
2022/12/07 07:55:10;;;;;;;30.40;12.23;;;4.60;20.90;;;;;;5032392;28;20378;-64
2022/12/07 07:57:39;;;;;;;35.72;10.70;;;4.60;6.40;;;;;;5032300;28;20100;-63
2022/12/07 08:00:09;;;;;;;37.67;13.65;;;4.60;4.00;;;;;;5032224;28;20040;-65
2022/12/07 08:02:35;;;;;;;37.38;12.30;;;4.70;28.80;;;;;;5047594;28;20134;-64
2022/12/07 08:05:00;;;;;;;33.95;11.27;;;4.80;50.90;;;;;;5035763;28;20545;-64
2022/12/07 08:07:27;;;;;;;31.80;11.90;;;4.90;63.50;;;;;;5042960;28;20033;-64
2022/12/07 08:09:53;;;;;;;31.55;11.75;;;4.90;77.70;;;;;;5034406;28;20037;-64
2022/12/07 08:12:19;;;;;;;32.47;11.77;;;4.90;85.10;;;;;;5031981;28;20033;-64
2022/12/07 08:14:44;;;;;;;34.20;12.05;;;4.90;75.10;;;;;;5040278;28;20086;-65
2022/12/07 08:17:10;;;;;;;31.00;13.57;;;4.80;54.70;;;;;;5051450;28;20049;-64
2022/12/07 08:19:36;;;;;;;28.40;12.35;;;4.70;50.10;;;;;;5051985;28;20379;-64
2022/12/07 08:22:02;;;;;;;38.95;13.35;;;4.70;38.00;;;;;;5046140;28;20394;-64
2022/12/07 08:24:27;;;;;;;34.65;11.93;;;4.70;38.40;;;;;;5044708;28;20179;-63
2022/12/07 08:26:53;;;;;;;31.50;10.93;;;4.80;60.00;;;;;;5049923;28;20040;-64
2022/12/07 08:29:19;;;;;;;25.08;11.60;;;4.90;90.20;;;;;;5052080;28;20518;-64
2022/12/07 08:31:45;;;;;;;25.20;10.80;;;4.90;94.80;;;;;;5039657;28;20033;-64
2022/12/07 08:34:12;;;;;;;26.15;9.00;;;5.00;99.90;;;;;;5030955;28;20057;-63
2022/12/07 08:36:37;;;;;;;29.80;9.95;;;5.00;99.90;;;;;;5031673;28;20026;-65
2022/12/07 08:39:03;;;;;;;28.55;10.65;;;5.00;99.90;;;;;;5031568;28;20477;-65
2022/12/07 08:41:29;;;;;;;24.10;9.98;;;5.00;99.90;;;;;;5031649;28;20033;-65
2022/12/07 08:43:55;;;;;;;29.20;10.60;;;5.10;99.90;;;;;;5031526;28;20025;-64
2022/12/07 08:46:26;;;;;;;32.33;10.23;;;5.20;99.90;;;;;;5031445;28;20409;-64
2022/12/07 08:48:56;;;;;;;25.27;8.82;;;5.20;99.90;;;;;;5031506;28;20022;-65
2022/12/07 08:51:23;;;;;;;28.33;8.93;;;5.30;99.90;;;;;;5031307;28;20543;-64
2022/12/07 08:53:50;;;;;;;28.80;11.13;;;5.30;99.90;;;;;;5031277;28;20026;-64
2022/12/07 08:56:16;;;;;;;31.50;10.88;;;5.40;99.90;;;;;;5031355;28;20481;-64
2022/12/07 08:58:43;;;;;;;29.92;10.57;;;5.40;99.90;;;;;;5031203;28;20538;-63
2022/12/07 09:01:09;;;;;;;30.02;11.88;;;5.50;99.90;;;;;;5030948;28;20470;-64
2022/12/07 09:03:35;;;;;;;30.98;12.15;;;5.50;99.90;;;;;;5031351;28;20029;-64
2022/12/07 09:06:00;;;;;;;27.67;10.45;;;5.60;99.90;;;;;;5031270;28;20373;-65
2022/12/07 09:08:31;;;;;;;30.77;11.32;;;5.70;99.90;;;;;;5031114;28;20050;-64
2022/12/07 09:10:56;;;;;;;30.23;11.25;;;5.70;95.90;;;;;;5036514;28;20032;-64
2022/12/07 09:13:22;;;;;;;30.08;11.02;;;5.80;89.00;;;;;;5042853;28;20031;-64
2022/12/07 09:15:48;;;;;;;32.22;11.35;;;5.80;29.50;;;;;;5033450;28;20053;-63
2022/12/07 09:18:14;;;;;;;29.67;11.05;;;5.90;1.00;;;;;;5034235;28;20100;-64
2022/12/07 09:20:39;;;;;;;30.25;10.55;;;5.90;1.00;;;;;;5031506;28;20025;-64
2022/12/07 09:23:06;;;;;;;30.00;11.40;;;5.90;99.90;;;;;;5033881;28;20020;-64
2022/12/07 09:25:33;;;;;;;27.65;11.15;;;5.90;99.90;;;;;;5030781;28;20057;-63
2022/12/07 09:27:59;;;;;;;27.70;11.13;;;6.00;99.90;;;;;;5030686;28;20036;-63
2022/12/07 09:30:26;;;;;;;28.85;10.55;;;6.10;99.90;;;;;;5030552;28;20033;-63
2022/12/07 09:32:56;;;;;;;23.88;9.55;;;6.20;99.90;;;;;;5034125;28;20021;-64
2022/12/07 09:35:23;;;;;;;28.67;10.30;;;6.30;99.90;;;;;;5043502;28;20021;-63
2022/12/07 09:37:48;;;;;;;31.27;10.13;;;6.40;99.90;;;;;;5050869;28;20021;-64
2022/12/07 09:40:16;;;;;;;26.65;9.85;;;6.50;99.90;;;;;;5030759;28;20102;-63
2022/12/07 09:42:45;;;;;;;28.35;9.73;;;6.50;63.70;;;;;;5037728;28;20500;-63
2022/12/07 09:45:17;;;;;;;27.92;9.98;;;6.50;1.00;;;;;;5032863;28;20405;-62
2022/12/07 09:47:43;;;;;;;29.48;9.30;;;6.50;99.90;;;;;;5030719;28;20070;-63
2022/12/07 09:50:24;;;;;;;25.08;9.02;;;6.60;99.90;;;;;;5030815;28;20037;-63
2022/12/07 09:52:51;;;;;;;23.58;9.48;;;6.60;99.90;;;;;;5030731;28;20053;-64
2022/12/07 09:55:24;;;;;;;22.17;9.82;;;6.70;99.90;;;;;;5036778;28;20037;-63
2022/12/07 09:57:51;;;;;;;28.08;9.40;;;6.70;99.90;;;;;;5030563;28;20037;-64
2022/12/07 10:00:21;;;;;;;21.73;8.77;;;6.70;99.90;;;;;;5030353;28;20115;-64
2022/12/07 10:03:00;;;;;;;22.88;9.13;;;6.70;93.70;;;;;;5030504;28;20033;-64
2022/12/07 10:05:37;;;;;;;23.20;8.98;;;6.70;25.90;;;;;;5047267;28;20025;-65
2022/12/07 10:08:04;;;;;;;25.15;9.35;;;6.70;1.00;;;;;;5050381;28;20021;-64
2022/12/07 10:10:32;;;;;;;33.13;10.02;;;6.60;1.00;;;;;;5050495;28;20039;-64
2022/12/07 10:13:05;;;;;;;19.50;9.18;;;6.60;1.00;;;;;;5048027;28;20387;-65
2022/12/07 10:15:54;;;;;;;20.13;9.88;;;6.60;99.90;;;;;;5038217;28;20041;-64
2022/12/07 10:18:44;;;;;;;24.60;9.40;;;6.40;99.90;;;;;;5034122;28;20032;-64
2022/12/07 10:21:23;;;;;;;19.23;8.85;;;6.40;99.90;;;;;;5034405;28;20034;-65
2022/12/07 10:24:11;;;;;;;23.02;9.32;;;6.30;99.90;;;;;;5034094;28;20060;-63
2022/12/07 10:26:51;;;;;;;26.67;9.88;;;6.30;99.90;;;;;;5038946;28;20114;-63
2022/12/07 10:29:35;;;;;;;23.48;8.68;;;6.20;99.90;;;;;;5046144;28;20627;-65
2022/12/07 10:32:03;;;;;;;21.83;8.85;;;6.20;99.90;;;;;;5044394;28;20064;-65
2022/12/07 10:34:31;;;;;;;21.15;9.90;;;6.20;99.90;;;;;;5040697;28;20026;-65
2022/12/07 10:37:19;;;;;;;24.88;10.07;;;6.20;99.90;;;;;;5033598;28;20291;-65
2022/12/07 10:39:49;;;;;;;18.42;8.77;;;6.10;99.90;;;;;;5035215;28;20021;-64
2022/12/07 10:42:27;;;;;;;20.33;9.25;;;6.10;99.90;;;;;;5043488;28;20029;-65
2022/12/07 10:45:15;;;;;;;25.90;9.32;;;6.00;99.90;;;;;;5034701;28;20017;-64
2022/12/07 10:48:02;;;;;;;21.90;7.45;;;6.10;99.90;;;;;;5032051;28;20021;-63
2022/12/07 10:50:41;;;;;;;20.55;8.15;;;6.10;99.90;;;;;;5051120;28;20033;-64
2022/12/07 10:53:25;;;;;;;19.58;8.85;;;6.10;99.90;;;;;;5045207;28;20039;-64
2022/12/07 10:56:12;;;;;;;24.23;7.53;;;6.10;99.90;;;;;;5051782;28;20025;-64
2022/12/07 10:59:03;;;;;;;19.23;8.13;;;6.10;99.90;;;;;;5065468;28;20020;-63
2022/12/07 11:01:34;;;;;;;22.25;7.15;;;6.10;99.90;;;;;;5052148;28;20116;-63
2022/12/07 11:04:31;;;;;;;17.48;7.18;;;6.20;99.90;;;;;;5038177;28;20041;-63
2022/12/07 11:07:21;;;;;;;14.30;6.63;;;6.20;99.90;;;;;;5052551;28;20032;-65
2022/12/07 11:10:12;;;;;;;12.88;6.30;;;6.20;99.90;;;;;;5053158;28;20029;-65
2022/12/07 11:12:52;;;;;;;13.38;6.43;;;6.20;99.90;;;;;;5046730;28;20025;-64
2022/12/07 11:15:22;;;;;;;12.32;5.45;;;6.20;99.90;;;;;;5032679;28;20049;-64
2022/12/07 11:18:28;;;;;;;11.30;6.05;;;6.30;99.90;;;;;;5037894;28;20053;-64
2022/12/07 11:21:12;;;;;;;20.23;6.57;;;6.40;99.90;;;;;;5050337;28;20029;-64
2022/12/07 11:23:43;;;;;;;13.68;6.60;;;6.40;99.90;;;;;;5036946;28;20034;-65
2022/12/07 11:26:31;;;;;;;12.38;6.18;;;6.50;99.90;;;;;;5052802;28;20025;-63
2022/12/07 11:29:43;;;;;;;17.40;8.07;;;6.50;99.90;;;;;;5052034;28;20028;-63
2022/12/07 11:32:30;;;;;;;14.13;7.07;;;6.30;99.90;;;;;;5052771;28;20493;-63
2022/12/07 11:35:23;;;;;;;13.48;6.25;;;6.30;99.90;;;;;;5051367;28;20025;-65
2022/12/07 11:37:57;;;;;;;17.00;6.78;;;6.40;99.90;;;;;;5052561;28;20025;-63
2022/12/07 11:40:36;;;;;;;16.95;7.22;;;6.50;99.90;;;;;;5052678;28;20064;-64
2022/12/07 11:43:21;;;;;;;19.00;7.40;;;6.50;99.90;;;;;;5052459;28;20032;-64
2022/12/07 11:46:11;;;;;;;19.35;7.38;;;6.50;99.90;;;;;;5052327;28;20477;-64
2022/12/07 11:49:06;;;;;;;19.08;7.68;;;6.50;99.90;;;;;;5052429;28;20466;-64
2022/12/07 11:51:37;;;;;;;20.02;8.15;;;6.60;99.90;;;;;;5052422;28;20080;-65
2022/12/07 11:54:12;;;;;;;11.23;7.10;;;6.70;99.90;;;;;;5051046;28;20025;-64
2022/12/07 11:56:38;;;;;;;15.15;7.45;;;6.70;99.90;;;;;;5052113;28;20025;-64
2022/12/07 11:59:27;;;;;;;17.00;7.45;;;6.70;99.90;;;;;;5051385;28;20032;-63
2022/12/07 12:02:13;;;;;;;14.65;7.55;;;6.70;99.90;;;;;;5049743;28;20470;-64
2022/12/07 12:04:58;;;;;;;15.38;7.47;;;6.60;99.90;;;;;;5049522;28;20025;-65
2022/12/07 12:07:26;;;;;;;16.17;6.95;;;6.60;99.90;;;;;;5051223;28;20414;-64
2022/12/07 12:10:13;;;;;;;14.38;8.05;;;6.80;99.90;;;;;;5043219;28;20494;-64
2022/12/07 12:12:53;;;;;;;18.23;7.85;;;6.70;99.90;;;;;;5032136;28;20474;-65
2022/12/07 12:15:57;;;;;;;14.27;7.43;;;6.70;99.90;;;;;;5030867;28;20041;-63
2022/12/07 12:18:41;;;;;;;12.18;7.40;;;6.80;99.90;;;;;;5035422;28;20037;-64
2022/12/07 12:21:20;;;;;;;19.60;8.00;;;6.90;99.90;;;;;;5049973;28;20020;-64
2022/12/07 12:23:54;;;;;;;15.65;8.05;;;6.90;99.90;;;;;;5051781;28;20052;-64
2022/12/07 12:26:26;;;;;;;17.27;8.15;;;7.00;99.90;;;;;;5052004;28;20032;-65
2022/12/07 12:29:02;;;;;;;14.80;8.52;;;7.00;99.90;;;;;;5052006;28;20044;-64
2022/12/07 12:31:32;;;;;;;18.58;7.97;;;6.90;99.90;;;;;;5051885;28;20037;-65
2022/12/07 12:34:00;;;;;;;18.73;7.75;;;7.00;99.90;;;;;;5050132;28;20087;-64
2022/12/07 12:36:35;;;;;;;13.60;6.72;;;7.50;99.90;;;;;;5051309;28;20025;-64
2022/12/07 21:07:35;;;;;;;21.67;8.90;;;2.90;48.70;;;;;;5068285;28;20387;-76
2022/12/07 21:10:01;;;;;;;22.67;10.23;;;2.60;32.50;;;;;;5068555;28;20106;-76
2022/12/07 21:12:28;;;;;;;21.20;10.55;;;2.50;62.00;;;;;;5068731;28;20473;-77
2022/12/07 21:14:54;;;;;;;25.08;11.90;;;2.60;91.20;;;;;;5067243;28;20485;-76
2022/12/07 21:17:19;;;;;;;28.48;11.80;;;2.60;98.50;;;;;;5068303;28;20039;-78
2022/12/07 21:19:45;;;;;;;24.50;11.13;;;2.70;99.90;;;;;;5068506;28;20021;-75
2022/12/07 21:22:11;;;;;;;28.95;12.18;;;2.70;99.90;;;;;;5068506;28;20028;-75
2022/12/07 21:24:38;;;;;;;28.80;12.02;;;2.70;99.90;;;;;;5068360;28;20017;-76
2022/12/07 21:27:05;;;;;;;29.08;11.77;;;2.80;99.90;;;;;;5068071;28;20040;-76
2022/12/07 21:29:31;;;;;;;27.50;11.90;;;2.80;99.90;;;;;;5066697;28;20384;-75
2022/12/07 21:31:57;;;;;;;26.33;12.45;;;2.80;99.90;;;;;;5068308;28;20466;-77
2022/12/07 21:34:22;;;;;;;25.23;11.45;;;2.80;99.90;;;;;;5068141;28;20075;-77
2022/12/07 21:36:48;;;;;;;26.63;11.80;;;2.80;99.90;;;;;;5067961;28;20599;-76